createdAt,value
2022-08-09T00:00:11.245Z,64.25
2022-08-09T00:01:54.566Z,63.98
2022-08-09T00:04:05.900Z,64.34
2022-08-09T00:06:18.958Z,64.37
2022-08-09T00:07:14.366Z,63.84
2022-08-09T00:08:48.648Z,64.38
2022-08-09T00:10:24.761Z,64.94
2022-08-09T00:12:03.757Z,64.82
2022-08-09T00:13:38.535Z,64.52
2022-08-09T00:15:14.605Z,65.41
2022-08-09T00:16:47.364Z,65.14
2022-08-09T00:18:19.303Z,64.71
2022-08-09T00:19:53.342Z,64.90
2022-08-09T00:21:28.249Z,65.45
2022-08-09T00:23:08.283Z,65.31
2022-08-09T00:24:52.156Z,65.86
2022-08-09T00:26:30.048Z,65.44
2022-08-09T00:28:06.791Z,65.52
2022-08-09T00:29:39.764Z,66.18
2022-08-09T00:31:59.548Z,65.90
2022-08-09T00:33:32.389Z,66.12
2022-08-09T00:35:05.648Z,65.78
2022-08-09T00:36:37.518Z,65.85
2022-08-09T00:38:12.636Z,66.23
2022-08-09T00:40:13.334Z,66.87
2022-08-09T00:44:11.903Z,66.49
2022-08-09T00:44:16.715Z,66.17
2022-08-09T00:45:22.276Z,66.77
2022-08-09T00:47:04.938Z,66.75
2022-08-09T00:48:37.981Z,66.41
2022-08-09T00:50:14.449Z,67.19
2022-08-09T00:51:55.918Z,66.08
2022-08-09T00:53:28.149Z,66.73
2022-08-09T00:55:01.451Z,66.94
2022-08-09T00:56:33.448Z,67.82
2022-08-09T00:58:05.969Z,66.75
2022-08-09T00:59:46.346Z,67.48
2022-08-09T01:01:25.086Z,67.32
2022-08-09T01:03:29.205Z,66.92
2022-08-09T01:05:22.159Z,67.44
2022-08-09T01:07:05.078Z,67.71
2022-08-09T01:08:49.517Z,67.93
2022-08-09T01:10:25.790Z,67.94
2022-08-09T01:12:28.407Z,68.25
2022-08-09T01:14:04.600Z,68.28
2022-08-09T01:15:41.122Z,67.68
2022-08-09T01:17:34.429Z,68.38
2022-08-09T01:19:29.059Z,67.91
2022-08-09T01:21:20.168Z,68.05
2022-08-09T01:24:03.160Z,67.69
2022-08-09T01:25:42.208Z,68.17
2022-08-09T01:27:23.943Z,68.36
2022-08-09T01:28:56.773Z,68.15
2022-08-09T01:30:39.997Z,68.48
2022-08-09T01:32:30.118Z,68.46
2022-08-09T01:34:06.288Z,68.90
2022-08-09T01:36:09.838Z,68.74
2022-08-09T01:38:05.727Z,68.53
2022-08-09T01:39:35.691Z,69.21
2022-08-09T01:41:19.462Z,69.31
2022-08-09T01:42:58.366Z,69.22
2022-08-09T01:44:31.826Z,69.33
2022-08-09T01:46:04.856Z,69.17
2022-08-09T01:47:44.775Z,69.68
2022-08-09T01:49:18.499Z,69.98
2022-08-09T01:50:55.200Z,69.89
2022-08-09T01:52:27.797Z,69.31
2022-08-09T01:54:04.202Z,69.14
2022-08-09T01:55:36.250Z,69.41
2022-08-09T01:57:22.749Z,68.97
2022-08-09T01:58:56.745Z,69.89
2022-08-09T02:00:34.707Z,69.22
2022-08-09T02:02:08.980Z,69.50
2022-08-09T02:03:43.097Z,69.92
2022-08-09T02:05:18.985Z,69.49
2022-08-09T02:07:18.370Z,69.94
2022-08-09T02:09:03.227Z,70.04
2022-08-09T02:10:39.742Z,69.64
2022-08-09T02:12:21.266Z,69.96
2022-08-09T02:14:06.418Z,70.43
2022-08-09T02:15:49.428Z,69.81
2022-08-09T02:17:59.163Z,70.13
2022-08-09T02:19:19.982Z,69.94
2022-08-09T02:21:06.471Z,70.51
2022-08-09T02:23:03.612Z,70.83
2022-08-09T02:24:37.375Z,70.83
2022-08-09T02:26:25.079Z,70.56
2022-08-09T02:28:17.783Z,70.49
2022-08-09T02:29:52.194Z,70.97
2022-08-09T02:31:26.303Z,71.68
2022-08-09T02:32:59.601Z,71.30
2022-08-09T02:34:40.238Z,71.26
2022-08-09T02:36:22.267Z,71.06
2022-08-09T02:38:00.999Z,71.81
2022-08-09T02:39:42.591Z,70.92
2022-08-09T02:41:18.739Z,71.46
2022-08-09T02:42:52.212Z,71.42
2022-08-09T02:44:30.415Z,71.46
2022-08-09T02:46:05.078Z,71.38
2022-08-09T02:47:57.624Z,70.99
2022-08-09T02:49:38.754Z,72.17
2022-08-09T02:51:15.481Z,71.90
2022-08-09T02:52:55.145Z,71.56
2022-08-09T02:54:27.849Z,71.95
2022-08-09T02:56:04.450Z,72.29
2022-08-09T02:57:59.696Z,71.67
2022-08-09T02:59:36.490Z,72.02
2022-08-09T03:01:15.185Z,71.96
2022-08-09T03:03:00.477Z,72.07
2022-08-09T03:04:33.873Z,72.23
2022-08-09T03:06:08.846Z,72.45
2022-08-09T03:07:41.477Z,72.93
2022-08-09T03:09:33.691Z,72.25
2022-08-09T03:11:06.627Z,72.21
2022-08-09T03:12:44.021Z,72.37
2022-08-09T03:14:26.544Z,73.45
2022-08-09T03:16:06.048Z,73.04
2022-08-09T03:17:39.595Z,72.86
2022-08-09T03:19:14.385Z,72.91
2022-08-09T03:21:05.711Z,72.56
2022-08-09T03:22:41.799Z,72.69
2022-08-09T03:24:15.379Z,72.45
2022-08-09T03:26:07.346Z,72.67
2022-08-09T03:27:45.157Z,72.72
2022-08-09T03:29:22.897Z,72.60
2022-08-09T03:30:56.033Z,72.75
2022-08-09T03:32:30.822Z,72.59
2022-08-09T03:34:03.467Z,72.46
2022-08-09T03:36:11.615Z,73.34
2022-08-09T03:37:56.567Z,73.79
2022-08-09T03:39:22.420Z,73.79
2022-08-09T03:40:58.333Z,73.65
2022-08-09T03:42:30.683Z,73.27
2022-08-09T03:44:08.796Z,74.09
2022-08-09T03:46:04.514Z,74.33
2022-08-09T03:47:36.716Z,73.94
2022-08-09T03:49:12.602Z,74.19
2022-08-09T03:50:50.704Z,74.39
2022-08-09T03:52:24.035Z,74.63
2022-08-09T03:54:05.477Z,74.14
2022-08-09T03:55:43.057Z,74.26
2022-08-09T03:57:20.170Z,74.64
2022-08-09T03:58:53.152Z,73.88
2022-08-09T04:00:27.052Z,73.85
2022-08-09T04:01:59.535Z,74.82
2022-08-09T04:03:35.476Z,74.60
2022-08-09T04:05:27.444Z,74.24
2022-08-09T04:07:00.016Z,74.44
2022-08-09T04:08:33.138Z,74.84
2022-08-09T04:10:05.949Z,74.45
2022-08-09T04:12:11.880Z,74.29
2022-08-09T04:14:54.020Z,74.19
2022-08-09T04:16:19.290Z,73.96
2022-08-09T04:17:47.378Z,74.82
2022-08-09T04:19:30.098Z,75.11
2022-08-09T04:21:11.474Z,74.59
2022-08-09T04:22:45.576Z,75.44
2022-08-09T04:24:17.521Z,74.80
2022-08-09T04:25:51.662Z,74.89
2022-08-09T04:27:24.173Z,74.89
2022-08-09T04:28:59.766Z,75.37
2022-08-09T04:30:33.283Z,75.53
2022-08-09T04:32:05.483Z,75.51
2022-08-09T04:33:47.578Z,74.95
2022-08-09T04:35:25.167Z,75.17
2022-08-09T04:37:01.504Z,74.75
2022-08-09T04:38:33.439Z,75.27
2022-08-09T04:40:06.948Z,75.16
2022-08-09T04:41:43.855Z,75.23
2022-08-09T04:43:16.940Z,75.77
2022-08-09T04:44:49.068Z,75.38
2022-08-09T04:46:36.548Z,75.70
2022-08-09T04:48:14.072Z,75.34
2022-08-09T04:49:54.644Z,75.75
2022-08-09T04:51:27.201Z,76.17
2022-08-09T04:53:11.696Z,76.09
2022-08-09T04:54:45.999Z,75.96
2022-08-09T04:56:20.053Z,75.50
2022-08-09T04:58:01.467Z,76.14
2022-08-09T04:59:41.200Z,76.00
2022-08-09T05:01:16.324Z,76.17
2022-08-09T05:02:52.673Z,75.78
2022-08-09T05:04:30.543Z,75.64
2022-08-09T05:06:06.745Z,76.62
2022-08-09T05:07:39.305Z,76.69
2022-08-09T05:09:12.445Z,75.94
2022-08-09T05:10:45.661Z,76.21
2022-08-09T05:12:17.828Z,76.24
2022-08-09T05:13:55.021Z,76.35
2022-08-09T05:15:39.392Z,76.19
2022-08-09T05:18:55.093Z,76.25
2022-08-09T05:19:09.352Z,76.56
2022-08-09T05:20:41.207Z,76.74
2022-08-09T05:22:36.017Z,77.26
2022-08-09T05:24:06.762Z,76.70
2022-08-09T05:25:38.804Z,77.53
2022-08-09T05:27:13.659Z,77.34
2022-08-09T05:28:49.100Z,77.15
2022-08-09T05:30:24.091Z,77.54
2022-08-09T05:32:01.882Z,77.78
2022-08-09T05:33:33.713Z,77.88
2022-08-09T05:35:14.211Z,77.92
2022-08-09T05:36:47.495Z,77.60
2022-08-09T05:38:21.684Z,77.32
2022-08-09T05:39:54.261Z,77.54
2022-08-09T05:41:26.529Z,77.24
2022-08-09T05:42:58.477Z,77.08
2022-08-09T05:44:32.421Z,77.12
2022-08-09T05:46:07.838Z,76.37
2022-08-09T05:47:51.757Z,76.71
2022-08-09T05:50:23.497Z,76.99
2022-08-09T05:51:30.102Z,76.99
2022-08-09T05:53:11.619Z,78.01
2022-08-09T05:54:53.717Z,77.25
2022-08-09T05:56:28.335Z,77.19
2022-08-09T05:58:00.135Z,77.26
2022-08-09T05:59:32.233Z,78.22
2022-08-09T06:01:04.091Z,78.27
2022-08-09T06:02:38.682Z,77.85
2022-08-09T06:04:23.657Z,78.09
2022-08-09T06:06:04.539Z,77.88
2022-08-09T06:07:38.001Z,77.28
2022-08-09T06:09:40.719Z,77.29
2022-08-09T06:11:17.360Z,77.71
2022-08-09T06:12:52.106Z,77.94
2022-08-09T06:14:35.273Z,77.60
2022-08-09T06:16:07.403Z,77.61
2022-08-09T06:17:40.621Z,78.04
2022-08-09T06:19:14.921Z,77.70
2022-08-09T06:20:50.056Z,77.83
2022-08-09T06:22:31.215Z,77.18
2022-08-09T06:24:06.256Z,78.05
2022-08-09T06:25:38.947Z,77.88
2022-08-09T06:27:10.828Z,77.47
2022-08-09T06:28:47.597Z,77.73
2022-08-09T06:30:20.178Z,76.38
2022-08-09T06:32:24.662Z,76.88
2022-08-09T06:33:53.078Z,76.76
2022-08-09T06:35:56.572Z,77.24
2022-08-09T06:37:17.219Z,76.84
2022-08-09T06:38:50.190Z,76.84
2022-08-09T06:40:24.226Z,76.66
2022-08-09T06:42:09.468Z,76.28
2022-08-09T06:43:43.199Z,76.50
2022-08-09T06:46:06.665Z,75.63
2022-08-09T06:47:06.849Z,75.82
2022-08-09T06:48:42.961Z,75.26
2022-08-09T06:50:19.074Z,74.86
2022-08-09T06:51:51.243Z,75.28
2022-08-09T06:53:23.111Z,75.29
2022-08-09T06:54:55.331Z,74.40
2022-08-09T06:56:30.600Z,73.88
2022-08-09T06:58:04.624Z,73.31
2022-08-09T07:00:52.796Z,73.83
2022-08-09T07:01:54.654Z,73.56
2022-08-09T07:03:27.806Z,73.09
2022-08-09T07:05:01.157Z,73.39
2022-08-09T07:06:32.991Z,73.41
2022-08-09T07:08:06.372Z,72.20
2022-08-09T07:09:55.343Z,72.07
2022-08-09T07:11:45.423Z,71.78
2022-08-09T07:13:29.525Z,71.82
2022-08-09T07:16:34.927Z,70.86
2022-08-09T07:16:58.399Z,70.98
2022-08-09T07:18:31.330Z,70.57
2022-08-09T07:20:04.162Z,69.84
2022-08-09T07:21:36.577Z,70.01
2022-08-09T07:23:18.318Z,69.05
2022-08-09T07:24:51.981Z,69.45
2022-08-09T07:26:23.915Z,69.93
2022-08-09T07:27:55.887Z,68.93
2022-08-09T07:29:38.102Z,67.96
2022-08-09T07:31:24.908Z,68.15
2022-08-09T07:32:56.856Z,68.61
2022-08-09T07:34:28.719Z,68.54
2022-08-09T07:36:01.606Z,68.16
2022-08-09T07:37:43.390Z,67.28
2022-08-09T07:39:20.200Z,66.59
2022-08-09T07:41:12.955Z,66.90
2022-08-09T07:42:50.101Z,66.25
2022-08-09T07:44:24.153Z,66.01
2022-08-09T07:46:08.523Z,66.00
2022-08-09T07:48:00.436Z,65.47
2022-08-09T07:49:33.640Z,64.73
2022-08-09T07:52:05.878Z,64.58
2022-08-09T07:53:16.771Z,64.30
2022-08-09T07:55:08.697Z,64.24
2022-08-09T07:56:49.230Z,63.68
2022-08-09T07:58:26.143Z,63.72
2022-08-09T08:00:03.368Z,63.16
2022-08-09T08:01:52.923Z,63.39
2022-08-09T08:03:26.817Z,62.42
2022-08-09T08:04:59.022Z,61.83
2022-08-09T08:06:32.673Z,61.60
2022-08-09T08:09:00.595Z,60.69
2022-08-09T08:10:08.100Z,59.50
2022-08-09T08:12:11.967Z,59.83
2022-08-09T08:13:39.988Z,60.06
2022-08-09T08:15:26.438Z,59.78
2022-08-09T08:17:09.115Z,59.47
2022-08-09T08:18:44.162Z,59.44
2022-08-09T08:20:19.555Z,58.81
2022-08-09T08:22:01.585Z,58.40
2022-08-09T08:23:34.918Z,58.40
2022-08-09T08:25:13.235Z,57.91
2022-08-09T08:26:55.834Z,57.02
2022-08-09T08:28:32.951Z,56.93
2022-08-09T08:30:06.306Z,56.19
2022-08-09T08:31:39.387Z,55.93
2022-08-09T08:33:40.719Z,55.59
2022-08-09T08:35:22.833Z,55.54
2022-08-09T08:36:54.916Z,55.84
2022-08-09T08:38:28.179Z,55.44
2022-08-09T08:40:00.204Z,55.28
2022-08-09T08:41:50.243Z,54.90
2022-08-09T08:43:27.140Z,54.95
2022-08-09T08:45:13.623Z,53.34
2022-08-09T08:47:02.794Z,53.25
2022-08-09T08:48:39.975Z,51.93
2022-08-09T08:50:23.872Z,52.30
2022-08-09T08:52:00.225Z,52.03
2022-08-09T08:53:36.912Z,50.70
2022-08-09T08:55:10.155Z,50.18
2022-08-09T08:56:42.104Z,50.51
2022-08-09T08:58:14.131Z,49.90
2022-08-09T08:59:53.942Z,49.62
2022-08-09T09:01:44.901Z,48.64
2022-08-09T09:03:25.308Z,49.21
2022-08-09T09:05:10.012Z,48.73
2022-08-09T09:06:44.208Z,48.91
2022-08-09T09:08:29.723Z,48.09
2022-08-09T09:10:09.138Z,47.33
2022-08-09T09:11:42.789Z,45.29
2022-08-09T09:13:16.590Z,45.73
2022-08-09T09:14:52.059Z,47.21
2022-08-09T09:16:30.981Z,46.52
2022-08-09T09:18:03.741Z,47.14
2022-08-09T09:19:41.514Z,46.52
2022-08-09T09:21:13.800Z,45.07
2022-08-09T09:22:53.028Z,44.73
2022-08-09T09:24:30.323Z,44.76
2022-08-09T09:26:12.388Z,43.97
2022-08-09T09:28:03.719Z,44.61
2022-08-09T09:32:06.633Z,43.03
2022-08-09T09:33:44.394Z,42.31
2022-08-09T09:35:17.746Z,43.22
2022-08-09T09:36:54.190Z,42.61
2022-08-09T09:38:58.251Z,41.38
2022-08-09T09:40:43.934Z,41.05
2022-08-09T09:42:25.985Z,41.07
2022-08-09T09:44:12.760Z,42.77
2022-08-09T09:46:41.792Z,41.62
2022-08-09T09:47:56.220Z,42.14
2022-08-09T09:49:49.858Z,41.32
2022-08-09T09:51:26.140Z,40.63
2022-08-09T09:53:20.765Z,41.57
2022-08-09T09:55:01.549Z,40.85
2022-08-09T09:56:37.515Z,40.44
2022-08-09T09:58:49.500Z,40.23
2022-08-09T10:00:26.634Z,40.28
2022-08-09T10:02:00.322Z,39.28
2022-08-09T10:03:44.292Z,39.61
2022-08-09T10:05:16.668Z,37.52
2022-08-09T10:07:26.703Z,39.23
2022-08-09T10:09:21.886Z,39.49
2022-08-09T10:10:55.019Z,39.13
2022-08-09T10:12:43.579Z,38.64
2022-08-09T10:14:33.069Z,38.13
2022-08-09T10:16:54.378Z,38.22
2022-08-09T10:18:10.821Z,38.23
2022-08-09T10:19:43.603Z,37.43
2022-08-09T10:21:17.773Z,37.81
2022-08-09T10:22:58.483Z,36.51
2022-08-09T10:24:35.641Z,36.84
2022-08-09T10:26:10.583Z,36.69
2022-08-09T10:27:57.357Z,37.32
2022-08-09T10:30:23.579Z,37.91
2022-08-09T10:34:04.937Z,36.68
2022-08-09T10:35:10.236Z,37.02
2022-08-09T10:36:43.148Z,35.48
2022-08-09T10:38:54.620Z,35.40
2022-08-09T10:40:33.801Z,36.65
2022-08-09T10:42:06.221Z,36.15
2022-08-09T10:43:46.912Z,35.94
2022-08-09T10:45:21.737Z,35.95
2022-08-09T10:47:41.660Z,36.06
2022-08-09T10:49:12.751Z,35.07
2022-08-09T10:51:09.575Z,35.51
2022-08-09T10:53:05.381Z,35.75
2022-08-09T10:54:42.631Z,35.00
2022-08-09T10:56:25.638Z,34.61
2022-08-09T10:58:00.465Z,34.91
2022-08-09T10:59:43.431Z,35.65
2022-08-09T11:03:06.724Z,35.42
2022-08-09T11:03:27.816Z,35.16
2022-08-09T11:05:25.470Z,34.83
2022-08-09T11:07:01.758Z,34.18
2022-08-09T11:08:47.127Z,34.57
2022-08-09T11:10:38.397Z,34.02
2022-08-09T11:12:13.287Z,35.51
2022-08-09T11:13:50.806Z,36.04
2022-08-09T11:15:33.829Z,35.12
2022-08-09T11:17:15.214Z,35.04
2022-08-09T11:19:07.909Z,35.20
2022-08-09T11:20:49.838Z,34.46
2022-08-09T11:22:45.468Z,33.78
2022-08-09T11:24:18.561Z,34.45
2022-08-09T11:25:54.807Z,34.22
2022-08-09T11:28:04.332Z,34.03
2022-08-09T11:30:05.238Z,33.67
2022-08-09T11:31:49.413Z,33.42
2022-08-09T11:33:46.272Z,32.55
2022-08-09T11:35:35.000Z,34.71
2022-08-09T11:37:41.106Z,34.68
2022-08-09T11:39:15.168Z,34.33
2022-08-09T11:40:48.806Z,34.77
2022-08-09T11:42:41.563Z,33.72
2022-08-09T11:44:13.614Z,33.83
2022-08-09T11:45:59.775Z,34.00
2022-08-09T11:48:06.504Z,34.74
2022-08-09T11:50:54.358Z,34.28
2022-08-09T11:53:03.109Z,33.99
2022-08-09T11:54:27.754Z,33.36
2022-08-09T11:56:41.788Z,33.94
2022-08-09T11:58:19.560Z,33.56
2022-08-09T11:59:52.572Z,32.93
2022-08-09T12:02:17.326Z,33.43
2022-08-09T12:03:55.908Z,32.80
2022-08-09T12:05:23.501Z,32.05
2022-08-09T12:06:56.458Z,32.34
2022-08-09T12:08:29.840Z,34.58
2022-08-09T12:10:02.496Z,34.12
2022-08-09T12:11:37.824Z,33.79
2022-08-09T12:14:10.511Z,33.39
2022-08-09T12:15:50.232Z,33.29
2022-08-09T12:17:27.711Z,32.80
2022-08-09T12:19:09.628Z,33.90
2022-08-09T12:20:43.869Z,32.71
2022-08-09T12:22:20.387Z,33.75
2022-08-09T12:24:06.321Z,33.20
2022-08-09T12:25:50.156Z,33.27
2022-08-09T12:29:15.304Z,33.75
2022-08-09T12:29:29.763Z,33.13
2022-08-09T12:31:58.278Z,32.33
2022-08-09T12:33:19.525Z,32.89
2022-08-09T12:35:02.928Z,31.94
2022-08-09T12:36:49.617Z,32.95
2022-08-09T12:38:37.460Z,32.79
2022-08-09T12:40:11.875Z,32.92
2022-08-09T12:41:44.180Z,30.81
2022-08-09T12:43:18.871Z,31.20
2022-08-09T12:44:55.409Z,32.86
2022-08-09T12:46:27.537Z,33.22
2022-08-09T12:47:59.433Z,31.92
2022-08-09T12:49:36.585Z,32.23
2022-08-09T12:51:08.972Z,32.66
2022-08-09T12:52:58.428Z,33.25
2022-08-09T12:55:03.460Z,32.71
2022-08-09T12:56:51.345Z,32.53
2022-08-09T12:58:27.742Z,31.53
2022-08-09T13:00:14.728Z,31.58
2022-08-09T13:01:58.841Z,31.93
2022-08-09T13:03:53.579Z,31.70
2022-08-09T13:05:51.521Z,31.10
2022-08-09T13:07:50.074Z,30.97
2022-08-09T13:09:32.617Z,32.68
2022-08-09T13:11:13.376Z,31.01
2022-08-09T13:13:09.371Z,32.44
2022-08-09T13:14:48.830Z,31.83
2022-08-09T13:16:23.559Z,30.74
2022-08-09T13:18:06.071Z,31.17
2022-08-09T13:20:10.366Z,32.21
2022-08-09T13:22:36.784Z,31.64
2022-08-09T13:24:16.310Z,32.32
2022-08-09T13:25:52.906Z,32.65
2022-08-09T13:27:30.670Z,32.09
2022-08-09T13:29:17.902Z,32.31
2022-08-09T13:32:14.248Z,32.45
2022-08-09T13:32:57.543Z,32.13
2022-08-09T13:34:38.394Z,32.05
2022-08-09T13:36:39.174Z,32.11
2022-08-09T13:38:03.869Z,32.52
2022-08-09T13:41:46.859Z,31.74
2022-08-09T13:41:58.793Z,32.11
2022-08-09T13:43:35.782Z,32.38
2022-08-09T13:45:13.086Z,31.58
2022-08-09T13:47:19.391Z,31.42
2022-08-09T13:48:38.415Z,30.71
2022-08-09T13:50:30.142Z,30.82
2022-08-09T13:52:04.174Z,30.02
2022-08-09T13:53:44.681Z,31.48
2022-08-09T13:55:17.825Z,31.07
2022-08-09T13:56:53.015Z,31.72
2022-08-09T13:58:26.085Z,31.78
2022-08-09T14:00:00.254Z,31.56
2022-08-09T14:01:56.007Z,30.83
2022-08-09T14:04:01.185Z,31.21
2022-08-09T14:06:01.247Z,30.81
2022-08-09T14:07:17.631Z,29.52
2022-08-09T14:08:49.726Z,31.14
2022-08-09T14:10:37.545Z,31.73
2022-08-09T14:12:15.755Z,31.70
2022-08-09T14:14:23.195Z,31.58
2022-08-09T14:16:09.049Z,31.54
2022-08-09T14:18:16.628Z,31.78
2022-08-09T14:19:25.805Z,30.81
2022-08-09T14:21:02.312Z,31.24
2022-08-09T14:22:34.861Z,30.78
2022-08-09T14:24:18.280Z,30.51
2022-08-09T14:25:56.110Z,31.48
2022-08-09T14:27:57.076Z,31.05
2022-08-09T14:30:36.005Z,31.33
2022-08-09T14:31:23.522Z,32.23
2022-08-09T14:33:11.490Z,31.52
2022-08-09T14:34:43.593Z,31.03
2022-08-09T14:36:20.668Z,31.54
2022-08-09T14:38:01.896Z,31.96
2022-08-09T14:39:46.609Z,31.60
2022-08-09T14:41:34.630Z,31.79
2022-08-09T14:43:18.567Z,31.14
2022-08-09T14:44:59.912Z,32.10
2022-08-09T14:46:57.639Z,30.71
2022-08-09T14:48:26.693Z,31.30
2022-08-09T14:50:01.862Z,30.22
2022-08-09T14:51:41.894Z,30.92
2022-08-09T14:53:15.179Z,31.77
2022-08-09T14:54:48.825Z,31.04
2022-08-09T14:56:26.909Z,31.36
2022-08-09T14:57:59.402Z,31.15
2022-08-09T14:59:31.156Z,31.11
2022-08-09T15:01:03.116Z,32.09
2022-08-09T15:02:36.098Z,30.69
2022-08-09T15:04:09.762Z,31.12
2022-08-09T15:05:52.529Z,31.61
2022-08-09T15:07:27.331Z,31.05
2022-08-09T15:09:02.995Z,31.30
2022-08-09T15:10:35.877Z,31.46
2022-08-09T15:12:11.623Z,31.40
2022-08-09T15:13:48.304Z,31.35
2022-08-09T15:15:28.848Z,31.42
2022-08-09T15:17:00.677Z,30.57
2022-08-09T15:18:36.588Z,31.87
2022-08-09T15:20:11.892Z,31.54
2022-08-09T15:22:00.526Z,31.11
2022-08-09T15:24:09.178Z,31.67
2022-08-09T15:25:38.935Z,31.78
2022-08-09T15:27:12.577Z,31.89
2022-08-09T15:28:54.777Z,31.94
2022-08-09T15:30:58.542Z,31.90
2022-08-09T15:32:39.058Z,31.88
2022-08-09T15:34:31.632Z,31.58
2022-08-09T15:36:05.846Z,31.50
2022-08-09T15:37:57.461Z,32.27
2022-08-09T15:39:34.429Z,31.58
2022-08-09T15:41:09.721Z,32.28
2022-08-09T15:42:45.524Z,31.83
2022-08-09T15:44:19.658Z,31.00
2022-08-09T15:46:28.256Z,31.41
2022-08-09T15:48:01.916Z,31.26
2022-08-09T15:49:38.478Z,31.12
2022-08-09T15:52:01.925Z,31.63
2022-08-09T15:54:07.040Z,31.70
2022-08-09T15:55:20.037Z,31.28
2022-08-09T15:56:53.036Z,31.95
2022-08-09T15:58:27.169Z,32.38
2022-08-09T15:59:59.292Z,32.07
2022-08-09T16:01:35.597Z,31.98
2022-08-09T16:03:07.765Z,31.56
2022-08-09T16:04:42.718Z,32.00
2022-08-09T16:06:27.319Z,32.00
2022-08-09T16:08:06.591Z,30.59
2022-08-09T16:09:57.898Z,32.32
2022-08-09T16:11:36.862Z,31.91
2022-08-09T16:13:18.720Z,31.68
2022-08-09T16:15:04.326Z,32.53
2022-08-09T16:16:57.604Z,31.75
2022-08-09T16:18:30.832Z,31.46
2022-08-09T16:20:09.049Z,31.89
2022-08-09T16:21:41.814Z,32.33
2022-08-09T16:23:21.795Z,31.86
2022-08-09T16:24:57.034Z,31.32
2022-08-09T16:26:34.201Z,32.71
2022-08-09T16:28:12.071Z,32.26
2022-08-09T16:29:49.948Z,32.23
2022-08-09T16:32:10.174Z,31.93
2022-08-09T16:33:16.308Z,32.14
2022-08-09T16:34:55.672Z,32.97
2022-08-09T16:36:30.562Z,32.01
2022-08-09T16:38:03.502Z,31.97
2022-08-09T16:39:39.965Z,32.27
2022-08-09T16:42:02.180Z,32.70
2022-08-09T16:43:18.665Z,32.49
2022-08-09T16:44:52.939Z,32.07
2022-08-09T16:46:27.550Z,32.27
2022-08-09T16:48:38.160Z,32.42
2022-08-09T16:50:32.335Z,33.26
2022-08-09T16:51:43.954Z,32.87
2022-08-09T16:53:33.962Z,33.22
2022-08-09T16:55:08.073Z,33.25
2022-08-09T16:56:49.485Z,33.63
2022-08-09T16:58:22.176Z,33.49
2022-08-09T16:59:57.530Z,32.66
2022-08-09T17:01:33.845Z,33.28
2022-08-09T17:03:06.026Z,32.93
2022-08-09T17:04:37.985Z,32.65
2022-08-09T17:06:31.875Z,33.29
2022-08-09T17:08:43.677Z,33.54
2022-08-09T17:09:53.683Z,33.55
2022-08-09T17:11:41.554Z,34.04
2022-08-09T17:13:14.665Z,33.56
2022-08-09T17:14:48.618Z,33.80
2022-08-09T17:16:22.477Z,33.99
2022-08-09T17:18:00.322Z,34.48
2022-08-09T17:20:12.670Z,34.74
2022-08-09T17:21:29.070Z,34.31
2022-08-09T17:23:01.032Z,34.97
2022-08-09T17:24:34.384Z,34.47
2022-08-09T17:26:06.216Z,34.38
2022-08-09T17:27:48.688Z,33.70
2022-08-09T17:29:21.589Z,34.15
2022-08-09T17:30:55.807Z,34.53
2022-08-09T17:32:37.710Z,34.66
2022-08-09T17:34:20.277Z,35.29
2022-08-09T17:36:01.790Z,34.54
2022-08-09T17:38:11.282Z,34.76
2022-08-09T17:39:25.735Z,35.12
2022-08-09T17:41:17.537Z,35.25
2022-08-09T17:42:49.603Z,35.42
2022-08-09T17:44:38.830Z,34.83
2022-08-09T17:46:19.574Z,35.96
2022-08-09T17:48:06.315Z,36.24
2022-08-09T17:49:50.697Z,36.01
2022-08-09T17:51:30.203Z,35.55
2022-08-09T17:53:02.190Z,36.53
2022-08-09T17:54:36.658Z,36.32
2022-08-09T17:56:09.555Z,35.92
2022-08-09T17:58:05.416Z,35.81
2022-08-09T17:59:38.462Z,36.18
2022-08-09T18:01:15.348Z,36.32
2022-08-09T18:02:58.371Z,35.95
2022-08-09T18:04:30.684Z,36.93
2022-08-09T18:06:02.539Z,37.02
2022-08-09T18:07:35.328Z,36.68
2022-08-09T18:09:07.783Z,36.53
2022-08-09T18:10:46.007Z,36.79
2022-08-09T18:12:30.087Z,36.79
2022-08-09T18:14:15.656Z,36.95
2022-08-09T18:16:05.164Z,36.87
2022-08-09T18:18:01.770Z,36.93
2022-08-09T18:20:56.772Z,37.77
2022-08-09T18:21:24.209Z,37.33
2022-08-09T18:22:56.408Z,37.04
2022-08-09T18:24:28.427Z,38.46
2022-08-09T18:26:03.177Z,37.53
2022-08-09T18:28:04.106Z,38.00
2022-08-09T18:30:34.699Z,38.19
2022-08-09T18:31:32.121Z,38.52
2022-08-09T18:33:13.477Z,38.31
2022-08-09T18:34:48.159Z,38.08
2022-08-09T18:36:32.212Z,38.13
2022-08-09T18:38:06.646Z,37.64
2022-08-09T18:39:48.469Z,38.04
2022-08-09T18:41:20.543Z,38.01
2022-08-09T18:42:59.431Z,37.92
2022-08-09T18:44:32.007Z,38.50
2022-08-09T18:46:48.424Z,38.15
2022-08-09T18:47:58.686Z,37.87
2022-08-09T18:49:31.987Z,38.71
2022-08-09T18:51:13.202Z,38.11
2022-08-09T18:52:46.705Z,38.33
2022-08-09T18:54:29.607Z,38.95
2022-08-09T18:56:05.206Z,38.41
2022-08-09T18:57:44.584Z,38.72
2022-08-09T18:59:16.940Z,38.75
2022-08-09T19:00:53.138Z,39.31
2022-08-09T19:02:32.684Z,38.71
2022-08-09T19:04:08.927Z,39.49
2022-08-09T19:06:02.120Z,40.15
2022-08-09T19:07:35.558Z,39.54
2022-08-09T19:09:20.333Z,39.19
2022-08-09T19:11:06.288Z,39.56
2022-08-09T19:12:42.365Z,39.48
2022-08-09T19:14:29.402Z,40.29
2022-08-09T19:16:01.508Z,39.94
2022-08-09T19:17:52.568Z,39.89
2022-08-09T19:19:28.080Z,40.32
2022-08-09T19:21:00.794Z,40.30
2022-08-09T19:22:34.506Z,39.98
2022-08-09T19:24:32.071Z,40.49
2022-08-09T19:26:02.076Z,41.06
2022-08-09T19:27:37.394Z,40.28
2022-08-09T19:29:18.014Z,40.65
2022-08-09T19:30:52.504Z,41.01
2022-08-09T19:32:31.407Z,40.44
2022-08-09T19:34:03.907Z,41.03
2022-08-09T19:35:58.393Z,41.34
2022-08-09T19:37:29.291Z,41.94
2022-08-09T19:39:13.164Z,40.98
2022-08-09T19:40:49.929Z,40.92
2022-08-09T19:42:24.087Z,41.28
2022-08-09T19:44:03.016Z,41.76
2022-08-09T19:45:38.974Z,41.86
2022-08-09T19:47:12.425Z,41.62
2022-08-09T19:49:00.179Z,41.69
2022-08-09T19:50:49.285Z,41.38
2022-08-09T19:52:23.759Z,41.59
2022-08-09T19:53:56.608Z,41.83
2022-08-09T19:55:39.130Z,42.04
2022-08-09T19:57:25.777Z,42.12
2022-08-09T19:59:39.956Z,42.32
2022-08-09T20:00:51.414Z,42.46
2022-08-09T20:04:07.316Z,42.17
2022-08-09T20:04:26.332Z,42.71
2022-08-09T20:06:22.408Z,41.95
2022-08-09T20:07:58.742Z,42.68
2022-08-09T20:09:43.706Z,42.54
2022-08-09T20:11:17.639Z,42.33
2022-08-09T20:12:52.021Z,42.73
2022-08-09T20:14:24.033Z,43.62
2022-08-09T20:16:37.770Z,42.90
2022-08-09T20:17:54.248Z,43.31
2022-08-09T20:19:48.965Z,42.86
2022-08-09T20:21:18.654Z,43.40
2022-08-09T20:22:56.408Z,44.01
2022-08-09T20:24:33.970Z,43.64
2022-08-09T20:26:06.786Z,43.66
2022-08-09T20:27:42.095Z,43.44
2022-08-09T20:29:18.950Z,43.14
2022-08-09T20:30:53.800Z,43.45
2022-08-09T20:32:31.175Z,44.33
2022-08-09T20:34:12.194Z,43.53
2022-08-09T20:35:51.643Z,43.91
2022-08-09T20:37:24.958Z,44.22
2022-08-09T20:39:28.753Z,44.29
2022-08-09T20:40:49.105Z,44.19
2022-08-09T20:42:21.333Z,44.95
2022-08-09T20:43:58.455Z,45.09
2022-08-09T20:46:00.901Z,44.54
2022-08-09T20:47:45.252Z,44.43
2022-08-09T20:49:16.162Z,44.47
2022-08-09T20:50:51.126Z,44.81
2022-08-09T20:52:27.751Z,45.18
2022-08-09T20:53:59.617Z,44.96
2022-08-09T20:55:47.560Z,45.11
2022-08-09T20:57:32.201Z,45.06
2022-08-09T20:59:04.411Z,45.12
2022-08-09T21:00:36.762Z,45.00
2022-08-09T21:02:18.646Z,45.28
2022-08-09T21:05:49.337Z,45.51
2022-08-09T21:05:52.070Z,45.80
2022-08-09T21:07:40.197Z,45.67
2022-08-09T21:09:13.768Z,45.74
2022-08-09T21:10:53.129Z,45.74
2022-08-09T21:14:19.773Z,46.62
2022-08-09T21:15:52.006Z,46.22
2022-08-09T21:18:11.682Z,46.10
2022-08-09T21:20:17.098Z,46.16
2022-08-09T21:21:17.202Z,46.41
2022-08-09T21:22:54.243Z,46.55
2022-08-09T21:24:28.931Z,46.43
2022-08-09T21:26:04.397Z,46.92
2022-08-09T21:27:51.245Z,46.92
2022-08-09T21:29:24.698Z,46.82
2022-08-09T21:30:56.589Z,47.60
2022-08-09T21:32:33.664Z,47.28
2022-08-09T21:34:10.547Z,47.64
2022-08-09T21:35:51.104Z,47.45
2022-08-09T21:37:23.377Z,47.26
2022-08-09T21:38:57.846Z,47.64
2022-08-09T21:40:33.481Z,47.37
2022-08-09T21:42:10.016Z,47.48
2022-08-09T21:43:56.598Z,47.27
2022-08-09T21:45:30.929Z,48.07